Time;durP1;ratioP1;P1;durP2;ratioP2;P2;SDS_P1;SDS_P2;PMS_P1;PMS_P2;Temp;Humidity;BMP_temperature;BMP_pressure;BME280_temperature;BME280_humidity;BME280_pressure;Samples;Min_cycle;Max_cycle;Signal;HPM_P1;HPM_P2
2023/12/04 00:01:19;;;;;;;25.35;22.85;;;0.70;99.90;;;;;;5006081;28;20477;-35
2023/12/04 00:03:45;;;;;;;24.42;21.25;;;0.70;99.90;;;;;;5005089;28;20050;-35
2023/12/04 00:06:11;;;;;;;26.63;22.17;;;0.70;99.90;;;;;;5006580;28;20140;-34
2023/12/04 00:08:37;;;;;;;25.73;21.83;;;0.70;99.90;;;;;;5008785;28;20060;-34
2023/12/04 00:11:04;;;;;;;25.67;23.00;;;0.70;99.90;;;;;;5003961;28;20573;-35
2023/12/04 00:13:30;;;;;;;30.45;27.60;;;0.70;99.90;;;;;;5009580;28;20833;-34
2023/12/04 00:15:56;;;;;;;23.02;20.63;;;0.70;99.90;;;;;;5004541;28;20046;-34
2023/12/04 00:18:21;;;;;;;24.48;21.63;;;0.70;99.90;;;;;;5013322;28;20510;-34
2023/12/04 00:20:47;;;;;;;26.58;23.70;;;0.70;99.90;;;;;;5007671;28;20049;-34
2023/12/04 00:23:13;;;;;;;24.95;21.88;;;0.70;99.90;;;;;;5004823;28;20049;-34
2023/12/04 00:25:38;;;;;;;38.15;34.75;;;0.70;99.90;;;;;;5005917;28;20108;-41
2023/12/04 00:28:04;;;;;;;25.83;23.02;;;0.70;99.90;;;;;;5005280;28;20069;-35
2023/12/04 00:30:29;;;;;;;35.80;32.53;;;0.70;99.90;;;;;;5008716;28;20049;-34
2023/12/04 00:32:55;;;;;;;25.25;21.10;;;0.70;99.90;;;;;;5007954;28;20085;-34
2023/12/04 00:35:21;;;;;;;36.08;32.53;;;0.70;99.90;;;;;;5002952;28;20088;-34
2023/12/04 00:37:46;;;;;;;33.78;30.60;;;0.70;99.90;;;;;;5006992;28;20092;-34
2023/12/04 00:40:12;;;;;;;27.33;21.75;;;0.70;99.90;;;;;;5005221;28;20092;-34
2023/12/04 00:42:38;;;;;;;25.70;21.35;;;0.80;99.90;;;;;;5005432;28;20559;-34
2023/12/04 00:45:04;;;;;;;36.72;33.20;;;0.80;99.90;;;;;;4996287;28;20050;-35
2023/12/04 00:47:29;;;;;;;24.73;21.45;;;0.70;99.90;;;;;;5008257;28;20069;-36
2023/12/04 00:49:55;;;;;;;37.67;34.35;;;0.80;99.90;;;;;;5006153;28;20076;-34
2023/12/04 00:52:21;;;;;;;25.42;22.63;;;0.80;99.90;;;;;;5004657;28;20049;-34
2023/12/04 00:54:46;;;;;;;26.98;21.67;;;0.80;99.90;;;;;;5007842;28;20053;-34
2023/12/04 00:57:12;;;;;;;27.88;21.08;;;0.80;99.90;;;;;;5006051;28;20445;-34
2023/12/04 00:59:38;;;;;;;25.27;20.40;;;0.80;99.90;;;;;;5003658;28;20054;-34
2023/12/04 01:02:05;;;;;;;26.30;22.42;;;0.80;99.90;;;;;;5003730;28;20088;-34
2023/12/04 01:04:31;;;;;;;25.55;20.55;;;0.80;99.90;;;;;;5007514;28;20115;-34
2023/12/04 01:06:56;;;;;;;34.22;31.23;;;0.80;99.90;;;;;;5007946;28;20054;-34
2023/12/04 01:09:24;;;;;;;31.27;28.20;;;0.80;99.90;;;;;;5003992;28;20050;-34
2023/12/04 01:11:53;;;;;;;33.53;30.42;;;0.80;99.90;;;;;;5008354;28;20054;-35
2023/12/04 01:14:20;;;;;;;25.70;20.95;;;0.80;99.90;;;;;;5007060;28;20145;-34
2023/12/04 01:16:46;;;;;;;25.20;21.92;;;0.80;99.90;;;;;;5012105;28;20049;-34
2023/12/04 01:19:12;;;;;;;27.83;24.52;;;0.80;99.90;;;;;;5010565;28;20080;-34
2023/12/04 01:21:37;;;;;;;27.13;24.27;;;0.80;99.90;;;;;;5003911;28;20046;-34
2023/12/04 01:24:03;;;;;;;26.45;21.63;;;0.80;99.90;;;;;;5010708;28;20056;-35
2023/12/04 01:26:29;;;;;;;29.58;26.77;;;0.80;99.90;;;;;;5005292;28;20122;-33
2023/12/04 01:28:55;;;;;;;34.10;30.80;;;0.80;99.90;;;;;;5010172;28;20048;-35
2023/12/04 01:31:21;;;;;;;27.02;21.65;;;0.80;99.90;;;;;;5005335;28;20049;-34
2023/12/04 01:33:46;;;;;;;24.52;20.23;;;0.80;99.90;;;;;;5012029;28;20514;-34
2023/12/04 01:36:12;;;;;;;29.75;26.55;;;0.80;99.90;;;;;;5010153;28;20466;-34
2023/12/04 01:38:38;;;;;;;25.25;19.00;;;0.80;99.90;;;;;;5009575;28;20054;-34
2023/12/04 01:41:04;;;;;;;28.08;21.90;;;0.80;99.90;;;;;;5005300;28;20128;-34
2023/12/04 01:43:30;;;;;;;32.08;28.70;;;0.80;99.90;;;;;;5015334;28;20050;-34
2023/12/04 01:45:56;;;;;;;33.78;30.38;;;0.80;99.90;;;;;;5008325;28;20057;-33
2023/12/04 01:48:24;;;;;;;30.83;27.33;;;0.80;99.90;;;;;;5009020;28;20052;-34
2023/12/04 01:50:51;;;;;;;25.40;20.35;;;0.80;99.90;;;;;;5009757;28;20046;-34
2023/12/04 01:53:17;;;;;;;29.38;25.85;;;0.80;99.90;;;;;;5006776;28;20080;-34
2023/12/04 01:55:43;;;;;;;30.90;27.60;;;0.80;99.90;;;;;;5006473;28;20152;-34
2023/12/04 01:58:09;;;;;;;31.65;28.27;;;0.80;99.90;;;;;;5005340;28;20068;-34
2023/12/04 02:00:35;;;;;;;31.90;28.70;;;0.80;99.90;;;;;;5006599;28;20057;-34
2023/12/04 02:03:01;;;;;;;27.15;20.23;;;0.80;99.90;;;;;;5006619;28;20058;-34
2023/12/04 02:05:27;;;;;;;27.55;23.73;;;0.80;99.90;;;;;;5004037;28;20065;-34
2023/12/04 02:07:54;;;;;;;32.20;29.02;;;0.80;99.90;;;;;;5001826;28;20143;-33
2023/12/04 02:10:20;;;;;;;30.88;27.73;;;0.80;99.90;;;;;;5003941;28;20439;-34
2023/12/04 02:12:45;;;;;;;25.45;22.05;;;0.80;99.90;;;;;;5008360;28;20045;-34
2023/12/04 02:15:13;;;;;;;32.25;29.13;;;0.90;99.90;;;;;;5000480;28;20073;-34
2023/12/04 02:17:39;;;;;;;31.25;28.27;;;0.80;99.90;;;;;;5001753;28;20577;-34
2023/12/04 02:20:06;;;;;;;24.15;20.70;;;0.80;99.90;;;;;;5004573;28;20050;-35
2023/12/04 02:22:31;;;;;;;24.35;20.23;;;0.80;99.90;;;;;;4983420;28;20042;-34
2023/12/04 02:24:59;;;;;;;32.70;29.38;;;0.80;99.90;;;;;;4984644;28;20054;-34
2023/12/04 02:27:38;;;;;;;35.25;31.73;;;0.80;99.90;;;;;;4982618;28;20049;-34
2023/12/04 02:30:07;;;;;;;27.60;24.65;;;0.80;99.90;;;;;;4999790;28;20096;-34
2023/12/04 02:32:37;;;;;;;24.27;18.52;;;0.80;99.90;;;;;;5002866;28;20082;-34
2023/12/04 02:35:05;;;;;;;30.08;27.20;;;0.80;99.90;;;;;;5003351;28;20129;-34
2023/12/04 02:37:32;;;;;;;35.85;32.50;;;0.90;99.90;;;;;;4999803;28;20514;-34
2023/12/04 02:39:58;;;;;;;33.65;30.52;;;0.90;99.90;;;;;;5003021;28;20056;-34
2023/12/04 02:42:27;;;;;;;28.42;25.65;;;0.90;99.90;;;;;;5000425;28;20594;-34
2023/12/04 02:44:53;;;;;;;24.58;22.05;;;0.90;99.90;;;;;;5001580;28;20057;-34
2023/12/04 02:47:19;;;;;;;31.45;28.45;;;0.90;99.90;;;;;;5001962;28;20054;-34
2023/12/04 02:49:44;;;;;;;24.15;20.30;;;0.90;99.90;;;;;;5001030;28;20097;-34
2023/12/04 02:52:10;;;;;;;27.52;24.88;;;0.90;99.90;;;;;;5002391;28;20577;-34
2023/12/04 02:54:36;;;;;;;29.88;26.92;;;0.90;99.90;;;;;;5000827;28;20062;-34
2023/12/04 02:57:01;;;;;;;36.45;33.13;;;0.90;99.90;;;;;;5003291;28;20052;-34
2023/12/04 02:59:27;;;;;;;35.13;31.98;;;0.90;99.90;;;;;;4999468;28;20050;-34
2023/12/04 03:01:52;;;;;;;26.33;23.05;;;0.90;99.90;;;;;;5002311;28;20737;-37
2023/12/04 03:04:21;;;;;;;24.60;18.77;;;0.90;99.90;;;;;;5004012;28;20072;-35
2023/12/04 03:06:47;;;;;;;38.53;35.13;;;0.90;99.90;;;;;;5006487;28;20044;-34
2023/12/04 03:09:13;;;;;;;24.05;21.42;;;0.90;99.90;;;;;;5002705;28;20410;-33
2023/12/04 03:11:42;;;;;;;23.52;18.05;;;0.90;99.90;;;;;;5004154;28;20050;-34
2023/12/04 03:14:08;;;;;;;23.70;20.30;;;0.90;99.90;;;;;;5003845;28;20104;-34
2023/12/04 03:16:33;;;;;;;37.15;33.88;;;0.90;99.90;;;;;;5002634;28;20057;-33
2023/12/04 03:18:59;;;;;;;33.33;30.08;;;0.90;99.90;;;;;;5004572;28;20054;-34
2023/12/04 03:21:25;;;;;;;33.58;30.42;;;0.90;99.90;;;;;;5004110;28;20452;-34
2023/12/04 03:23:50;;;;;;;20.23;18.00;;;0.90;99.90;;;;;;5006436;28;20088;-35
2023/12/04 03:26:16;;;;;;;30.08;27.33;;;0.90;99.90;;;;;;5003893;28;20076;-34
2023/12/04 03:28:42;;;;;;;34.58;31.25;;;0.90;99.90;;;;;;5003652;28;20057;-34
2023/12/04 03:31:08;;;;;;;35.60;32.65;;;0.90;99.90;;;;;;5002853;28;20057;-34
2023/12/04 03:33:33;;;;;;;31.98;29.08;;;0.90;99.90;;;;;;5003873;28;20069;-34
2023/12/04 03:36:00;;;;;;;33.08;30.15;;;0.90;99.90;;;;;;5003756;28;20053;-34
2023/12/04 03:38:26;;;;;;;25.35;17.42;;;1.00;99.90;;;;;;5003382;28;20046;-34
2023/12/04 03:40:51;;;;;;;30.77;27.75;;;0.90;99.90;;;;;;5002765;28;20108;-40
2023/12/04 03:43:17;;;;;;;35.83;32.50;;;0.90;99.90;;;;;;5016631;28;20053;-34
2023/12/04 03:45:43;;;;;;;36.45;33.47;;;0.90;99.90;;;;;;5003842;28;20056;-34
2023/12/04 03:48:08;;;;;;;33.20;30.33;;;0.90;99.90;;;;;;5003609;28;20049;-34
2023/12/04 03:50:34;;;;;;;34.08;31.08;;;1.00;99.90;;;;;;5002610;28;20412;-34
2023/12/04 03:52:59;;;;;;;37.72;34.42;;;0.90;99.90;;;;;;5000493;28;20081;-34
2023/12/04 03:55:25;;;;;;;35.05;31.90;;;1.00;99.90;;;;;;5004064;28;20184;-34
2023/12/04 03:57:51;;;;;;;33.72;30.67;;;0.90;99.90;;;;;;5003191;28;20482;-34
2023/12/04 04:00:17;;;;;;;36.35;33.30;;;1.00;99.90;;;;;;5001494;28;20054;-34
2023/12/04 04:02:44;;;;;;;29.58;26.90;;;0.90;99.90;;;;;;5003011;28;20046;-34
2023/12/04 04:05:09;;;;;;;37.72;34.35;;;1.00;99.90;;;;;;5004093;28;20487;-35
2023/12/04 04:07:35;;;;;;;34.30;31.38;;;0.90;99.90;;;;;;4999764;28;20065;-34
2023/12/04 04:10:04;;;;;;;33.67;30.75;;;1.00;99.90;;;;;;5003009;28;20053;-34
2023/12/04 04:12:30;;;;;;;35.47;32.47;;;1.00;99.90;;;;;;4999980;28;20196;-34
2023/12/04 04:14:56;;;;;;;35.38;32.17;;;1.00;99.90;;;;;;5001883;28;20046;-34
2023/12/04 04:17:25;;;;;;;20.30;16.10;;;1.00;99.90;;;;;;5016495;28;20054;-34
2023/12/04 04:19:51;;;;;;;37.10;34.10;;;1.00;99.90;;;;;;5006653;28;20086;-34
2023/12/04 04:22:16;;;;;;;36.58;33.72;;;1.00;99.90;;;;;;5005648;28;20050;-34
2023/12/04 04:24:42;;;;;;;39.17;36.03;;;1.00;99.90;;;;;;4992579;28;20495;-34
2023/12/04 04:27:08;;;;;;;36.42;33.35;;;1.00;99.90;;;;;;5004530;28;20050;-34
2023/12/04 04:29:33;;;;;;;37.47;34.40;;;1.00;99.90;;;;;;4997787;28;20077;-34
2023/12/04 04:31:59;;;;;;;30.60;27.70;;;1.00;99.90;;;;;;5002766;28;20132;-34
2023/12/04 04:34:24;;;;;;;36.45;33.33;;;1.00;99.90;;;;;;5000070;28;20061;-34
2023/12/04 04:36:50;;;;;;;32.78;29.95;;;1.00;99.90;;;;;;5007535;28;20052;-34
2023/12/04 04:39:16;;;;;;;36.40;33.15;;;1.00;99.90;;;;;;5009766;28;20115;-34
2023/12/04 04:41:41;;;;;;;38.90;35.65;;;1.00;99.90;;;;;;5007365;28;20050;-34
2023/12/04 04:44:07;;;;;;;25.25;22.77;;;1.00;99.90;;;;;;5010265;28;20054;-34
2023/12/04 04:46:32;;;;;;;39.05;35.78;;;1.00;99.90;;;;;;5008814;28;20137;-34
2023/12/04 04:48:58;;;;;;;20.17;18.23;;;1.00;99.90;;;;;;5006971;28;20050;-38
2023/12/04 04:51:24;;;;;;;40.83;37.60;;;1.00;99.90;;;;;;5008439;28;20041;-34
2023/12/04 04:53:49;;;;;;;35.25;32.22;;;1.00;99.90;;;;;;5007009;28;20049;-41
2023/12/04 04:56:15;;;;;;;37.05;34.00;;;1.00;99.90;;;;;;5007009;28;20046;-34
2023/12/04 04:58:41;;;;;;;39.25;36.05;;;1.00;99.90;;;;;;5006550;28;20060;-34
2023/12/04 05:01:08;;;;;;;42.47;39.08;;;1.00;99.90;;;;;;5008930;28;20125;-33
2023/12/04 05:03:34;;;;;;;37.63;34.67;;;1.00;99.90;;;;;;5007532;28;20045;-34
2023/12/04 05:06:00;;;;;;;38.97;35.90;;;1.00;99.90;;;;;;5006739;28;20053;-34
2023/12/04 05:08:25;;;;;;;39.03;35.78;;;1.00;99.90;;;;;;5007833;28;20049;-34
2023/12/04 05:10:51;;;;;;;25.42;23.02;;;1.00;99.90;;;;;;5008498;28;20762;-34
2023/12/04 05:13:17;;;;;;;37.13;34.15;;;1.00;99.90;;;;;;5008586;28;20046;-34
2023/12/04 05:15:43;;;;;;;21.17;18.55;;;1.00;99.90;;;;;;5005455;28;20075;-34
2023/12/04 05:18:08;;;;;;;34.97;32.28;;;1.00;99.90;;;;;;5009049;28;20112;-34
2023/12/04 05:20:34;;;;;;;32.13;29.33;;;0.90;99.90;;;;;;5010595;28;20045;-34
2023/12/04 05:23:00;;;;;;;18.67;13.60;;;0.90;99.90;;;;;;5010480;28;20454;-34
2023/12/04 05:25:26;;;;;;;38.45;35.42;;;0.90;99.90;;;;;;5007681;28;20068;-33
2023/12/04 05:27:52;;;;;;;34.90;32.05;;;0.90;99.90;;;;;;5008440;28;20064;-34
2023/12/04 05:30:17;;;;;;;38.20;35.20;;;0.90;99.90;;;;;;5005687;28;20053;-41
2023/12/04 05:32:43;;;;;;;37.72;34.75;;;1.00;99.90;;;;;;5007910;28;20052;-34
2023/12/04 05:35:09;;;;;;;36.25;33.30;;;0.90;99.90;;;;;;5007745;28;20061;-34
2023/12/04 05:37:34;;;;;;;35.58;32.60;;;0.90;99.90;;;;;;5006985;28;20049;-34
2023/12/04 05:40:00;;;;;;;35.95;33.08;;;0.90;99.90;;;;;;5008242;28;20408;-34
2023/12/04 05:42:26;;;;;;;17.08;14.07;;;0.90;99.90;;;;;;5006918;28;20050;-34
2023/12/04 05:44:55;;;;;;;34.53;31.75;;;0.90;99.90;;;;;;5007658;28;20058;-34
2023/12/04 05:47:21;;;;;;;36.85;33.58;;;0.90;99.90;;;;;;5006688;28;20496;-34
2023/12/04 05:49:46;;;;;;;37.88;34.78;;;0.90;99.90;;;;;;4997780;28;20082;-35
2023/12/04 05:52:13;;;;;;;20.52;18.35;;;0.90;99.90;;;;;;5008582;28;20764;-34
2023/12/04 05:54:38;;;;;;;19.27;16.05;;;0.90;99.90;;;;;;5003272;28;20065;-34
2023/12/04 05:57:04;;;;;;;34.90;32.20;;;0.90;99.90;;;;;;5021451;28;20113;-34
2023/12/04 05:59:30;;;;;;;15.48;12.75;;;0.80;99.90;;;;;;5003205;28;20053;-34
2023/12/04 06:01:56;;;;;;;33.50;30.80;;;0.80;99.90;;;;;;5004454;28;20427;-34
2023/12/04 06:04:21;;;;;;;33.38;30.88;;;0.80;99.90;;;;;;5001255;28;20061;-34
2023/12/04 06:06:47;;;;;;;35.65;32.88;;;0.80;99.90;;;;;;5004038;28;20145;-44
2023/12/04 06:09:15;;;;;;;17.60;12.43;;;0.80;99.90;;;;;;5004531;28;20135;-34
2023/12/04 06:11:40;;;;;;;17.40;14.07;;;0.80;99.90;;;;;;4997409;28;20058;-35
2023/12/04 06:14:06;;;;;;;32.75;30.23;;;0.80;99.90;;;;;;5005444;28;20100;-34
2023/12/04 06:16:32;;;;;;;34.60;31.80;;;0.80;99.90;;;;;;5002907;28;20150;-34
2023/12/04 06:18:57;;;;;;;18.88;16.88;;;0.80;99.90;;;;;;5003648;28;20407;-34
2023/12/04 06:21:23;;;;;;;15.68;12.93;;;0.80;99.90;;;;;;5005424;28;20053;-34
2023/12/04 06:23:49;;;;;;;12.93;11.10;;;0.80;99.90;;;;;;5003908;28;20054;-34
2023/12/04 06:26:15;;;;;;;14.30;10.55;;;0.80;99.90;;;;;;5001058;28;20411;-34
2023/12/04 06:28:41;;;;;;;22.80;20.60;;;0.80;99.90;;;;;;5004158;28;20085;-34
2023/12/04 06:31:07;;;;;;;36.72;33.95;;;0.80;99.90;;;;;;5003554;28;20144;-34
2023/12/04 06:33:33;;;;;;;35.53;32.67;;;0.80;99.90;;;;;;5005530;28;20054;-34
2023/12/04 06:35:59;;;;;;;36.45;33.67;;;0.90;99.90;;;;;;5004335;28;20050;-34
2023/12/04 06:38:25;;;;;;;30.00;27.63;;;0.90;99.90;;;;;;5007924;28;20461;-34
2023/12/04 06:40:51;;;;;;;14.77;10.57;;;0.90;99.90;;;;;;5005062;28;20169;-33
2023/12/04 06:43:18;;;;;;;15.85;13.25;;;0.90;99.90;;;;;;5001586;28;20129;-34
2023/12/04 06:45:45;;;;;;;14.40;11.52;;;0.90;99.90;;;;;;5004557;28;20061;-34
2023/12/04 06:48:15;;;;;;;18.75;12.05;;;0.90;99.90;;;;;;5003784;28;20053;-33
2023/12/04 06:50:40;;;;;;;14.93;12.80;;;0.90;99.90;;;;;;4999066;28;20057;-34
2023/12/04 06:53:06;;;;;;;14.63;11.18;;;0.90;99.90;;;;;;5003154;28;20466;-34
2023/12/04 06:55:32;;;;;;;22.73;20.60;;;0.90;99.90;;;;;;5002442;28;20060;-34
2023/12/04 06:57:58;;;;;;;15.32;13.73;;;0.90;99.90;;;;;;5001519;28;20188;-34
2023/12/04 07:00:23;;;;;;;25.75;23.55;;;0.90;99.90;;;;;;5000231;28;20096;-34
2023/12/04 07:02:50;;;;;;;23.33;21.40;;;0.90;99.90;;;;;;5003909;28;20075;-35
2023/12/04 07:05:16;;;;;;;24.73;22.77;;;0.90;99.90;;;;;;5002102;28;20145;-34
2023/12/04 07:07:41;;;;;;;22.13;20.00;;;0.90;99.90;;;;;;5002091;28;20136;-34
2023/12/04 07:10:07;;;;;;;11.70;9.48;;;0.90;99.90;;;;;;5003640;28;20077;-34
2023/12/04 07:12:33;;;;;;;12.68;11.35;;;0.90;99.90;;;;;;5003872;28;20049;-34
2023/12/04 07:14:59;;;;;;;13.50;11.35;;;0.90;99.90;;;;;;4994879;28;20085;-35
2023/12/04 07:17:25;;;;;;;20.80;19.00;;;0.90;99.90;;;;;;5001699;28;20057;-34
2023/12/04 07:19:50;;;;;;;18.50;16.95;;;0.90;99.90;;;;;;5006484;28;20080;-34
2023/12/04 07:22:16;;;;;;;17.73;16.08;;;0.90;99.90;;;;;;5003565;28;20056;-46
2023/12/04 07:24:42;;;;;;;15.40;14.02;;;0.90;99.90;;;;;;5008005;28;20104;-34
2023/12/04 07:27:09;;;;;;;13.90;8.88;;;0.90;99.90;;;;;;5003508;28;20096;-34
2023/12/04 07:29:34;;;;;;;13.20;10.70;;;1.00;99.90;;;;;;5007986;28;20111;-34
2023/12/04 07:32:00;;;;;;;11.40;8.23;;;1.00;99.90;;;;;;4997215;28;20500;-34
2023/12/04 07:34:26;;;;;;;13.43;11.80;;;1.00;99.90;;;;;;5003468;28;20080;-34
2023/12/04 07:36:52;;;;;;;15.75;14.15;;;1.00;99.90;;;;;;5005840;28;20050;-36
2023/12/04 07:39:17;;;;;;;14.10;12.80;;;1.00;99.90;;;;;;5006595;28;20049;-34
2023/12/04 07:41:43;;;;;;;17.77;15.95;;;1.00;99.90;;;;;;5006201;28;20404;-34
2023/12/04 07:44:09;;;;;;;14.25;12.77;;;1.00;99.90;;;;;;5004674;28;20046;-34
2023/12/04 07:46:34;;;;;;;12.32;11.05;;;1.00;99.90;;;;;;5006427;28;20506;-34
2023/12/04 07:49:00;;;;;;;13.40;10.43;;;1.10;99.90;;;;;;5006212;28;20135;-34
2023/12/04 07:51:25;;;;;;;17.85;16.08;;;1.00;99.90;;;;;;5004683;28;20050;-34
2023/12/04 07:53:51;;;;;;;15.88;14.43;;;1.10;99.90;;;;;;5009267;28;20050;-34
2023/12/04 07:56:17;;;;;;;16.67;15.25;;;1.10;99.90;;;;;;5006545;28;20045;-35
2023/12/04 07:58:43;;;;;;;17.30;15.70;;;1.10;99.90;;;;;;5007859;28;20061;-34
2023/12/04 08:01:09;;;;;;;15.70;14.30;;;1.10;99.90;;;;;;5006181;28;20852;-34
2023/12/04 08:03:34;;;;;;;17.92;16.48;;;1.10;99.90;;;;;;5007006;28;20049;-34
2023/12/04 08:06:00;;;;;;;18.10;16.55;;;1.10;99.90;;;;;;5005902;28;20140;-34
2023/12/04 08:08:26;;;;;;;19.25;17.67;;;1.10;99.90;;;;;;5003643;28;20116;-34
2023/12/04 08:10:51;;;;;;;16.77;15.40;;;1.10;99.90;;;;;;5007349;28;20056;-34
2023/12/04 08:13:17;;;;;;;19.33;17.63;;;1.10;99.90;;;;;;5006181;28;20050;-34
2023/12/04 08:15:44;;;;;;;17.10;15.60;;;1.10;99.90;;;;;;5005104;28;20057;-39
2023/12/04 08:18:09;;;;;;;19.63;18.08;;;1.10;99.90;;;;;;5009561;28;20087;-34
2023/12/04 08:20:35;;;;;;;18.60;17.10;;;1.10;99.90;;;;;;5008554;28;20177;-34
2023/12/04 08:23:01;;;;;;;17.88;16.25;;;1.10;99.90;;;;;;5007979;28;20587;-34
2023/12/04 08:25:26;;;;;;;18.17;16.65;;;1.10;99.90;;;;;;5005691;28;20092;-34
2023/12/04 08:27:52;;;;;;;18.30;16.75;;;1.10;99.90;;;;;;5004994;28;20042;-34
2023/12/04 08:30:18;;;;;;;15.98;14.68;;;1.20;99.90;;;;;;5010076;28;20692;-34
2023/12/04 08:32:44;;;;;;;17.35;15.98;;;1.20;99.90;;;;;;5002908;28;20128;-36
2023/12/04 08:35:09;;;;;;;16.63;15.32;;;1.20;99.90;;;;;;5005657;28;20435;-34
2023/12/04 08:37:35;;;;;;;16.30;14.88;;;1.20;99.90;;;;;;5006372;28;20057;-34
2023/12/04 08:40:02;;;;;;;14.07;12.68;;;1.30;99.90;;;;;;5002700;28;20060;-34
2023/12/04 08:42:28;;;;;;;14.73;13.52;;;1.30;99.90;;;;;;5008196;28;20597;-34
2023/12/04 08:44:54;;;;;;;14.23;13.02;;;1.30;99.90;;;;;;5004929;28;20045;-34
2023/12/04 08:47:19;;;;;;;13.00;11.73;;;1.30;99.90;;;;;;5015769;28;20063;-34
2023/12/04 08:49:46;;;;;;;11.75;10.75;;;1.40;99.90;;;;;;4999663;28;20081;-35
2023/12/04 08:52:12;;;;;;;12.10;10.90;;;1.40;99.90;;;;;;5006616;28;20117;-34
2023/12/04 08:54:44;;;;;;;10.88;9.75;;;1.40;99.90;;;;;;5006822;28;20508;-34
2023/12/04 08:57:09;;;;;;;11.88;10.77;;;1.50;99.90;;;;;;5005306;28;20412;-34
2023/12/04 08:59:35;;;;;;;10.48;9.38;;;1.50;99.90;;;;;;5007741;28;20041;-35
2023/12/04 09:02:04;;;;;;;8.80;7.93;;;1.50;99.90;;;;;;5005030;28;20049;-34
2023/12/04 09:04:33;;;;;;;9.60;7.72;;;1.60;99.90;;;;;;5011608;28;20150;-34
2023/12/04 09:06:59;;;;;;;8.52;7.50;;;1.60;99.90;;;;;;5002903;28;20412;-34
2023/12/04 09:09:24;;;;;;;8.73;6.90;;;1.70;99.90;;;;;;5005984;28;20049;-34
2023/12/04 09:11:50;;;;;;;8.73;7.03;;;1.70;99.90;;;;;;4999856;28;20496;-34
2023/12/04 09:14:16;;;;;;;8.80;6.68;;;1.70;99.90;;;;;;5006227;28;20058;-34
2023/12/04 09:16:42;;;;;;;8.43;5.13;;;1.80;99.90;;;;;;5010189;28;20058;-34
2023/12/04 09:19:08;;;;;;;7.32;5.57;;;1.90;99.90;;;;;;5005263;28;20513;-34
2023/12/04 09:21:35;;;;;;;7.63;5.60;;;1.90;99.90;;;;;;5003536;28;20050;-34
2023/12/04 09:24:01;;;;;;;8.80;5.40;;;2.00;99.90;;;;;;5010549;28;20052;-34
2023/12/04 09:26:27;;;;;;;9.85;5.40;;;2.00;99.90;;;;;;5009340;28;20049;-34
2023/12/04 09:28:53;;;;;;;6.45;4.70;;;2.00;99.90;;;;;;5007991;28;20046;-34
2023/12/04 09:31:19;;;;;;;6.15;3.95;;;2.10;99.90;;;;;;5013616;28;20050;-39
2023/12/04 09:33:47;;;;;;;7.40;4.55;;;2.10;99.90;;;;;;5005588;28;20059;-40
2023/12/04 09:36:12;;;;;;;7.38;4.50;;;2.10;99.90;;;;;;5009871;28;21757;-39
2023/12/04 09:38:38;;;;;;;7.55;4.68;;;2.20;99.90;;;;;;5009887;28;20037;-34
2023/12/04 09:41:09;;;;;;;7.28;4.70;;;2.20;99.90;;;;;;5001288;28;20054;-34
2023/12/04 09:43:35;;;;;;;6.43;3.83;;;2.30;99.90;;;;;;5008604;28;20529;-34
2023/12/04 09:46:01;;;;;;;8.07;4.55;;;2.30;99.90;;;;;;5006820;28;20046;-34
2023/12/04 09:48:27;;;;;;;6.78;4.22;;;2.30;99.90;;;;;;5014451;28;20049;-35
2023/12/04 09:50:54;;;;;;;8.57;4.20;;;2.30;99.90;;;;;;5006511;28;20054;-34
2023/12/04 09:53:21;;;;;;;8.13;4.78;;;2.30;99.90;;;;;;4995783;28;20038;-35
2023/12/04 09:55:50;;;;;;;7.05;4.13;;;2.30;99.90;;;;;;5009180;28;20053;-34
2023/12/04 09:58:19;;;;;;;7.55;4.07;;;2.30;99.90;;;;;;5008257;28;20084;-34
2023/12/04 10:00:46;;;;;;;7.60;4.47;;;2.30;99.90;;;;;;5007385;28;20078;-34
2023/12/04 10:03:12;;;;;;;7.72;4.15;;;2.40;99.90;;;;;;5007484;28;20062;-34
2023/12/04 10:05:43;;;;;;;7.55;4.53;;;2.40;99.90;;;;;;5009337;28;20073;-34
2023/12/04 10:08:09;;;;;;;6.53;4.43;;;2.40;99.90;;;;;;5002565;28;20060;-34
2023/12/04 10:10:35;;;;;;;7.75;4.40;;;2.40;99.90;;;;;;5010339;28;20045;-34
2023/12/04 10:13:00;;;;;;;7.88;4.32;;;2.40;99.90;;;;;;5008124;28;20124;-34
2023/12/04 10:15:26;;;;;;;6.55;4.10;;;2.40;99.90;;;;;;5008455;28;20080;-34
2023/12/04 10:17:54;;;;;;;6.93;4.45;;;2.40;99.90;;;;;;5008568;28;20054;-34
2023/12/04 10:20:21;;;;;;;7.32;4.35;;;2.40;99.90;;;;;;5009678;28;21387;-34
2023/12/04 10:22:58;;;;;;;5.95;4.25;;;2.40;99.90;;;;;;5009477;28;20060;-34
2023/12/04 10:25:29;;;;;;;8.15;4.78;;;2.50;99.90;;;;;;5004196;28;20057;-34
2023/12/04 10:28:09;;;;;;;7.90;4.80;;;2.50;99.90;;;;;;5007355;28;20054;-34
2023/12/04 10:30:34;;;;;;;7.07;5.13;;;2.50;99.90;;;;;;5008811;28;20050;-34
2023/12/04 10:33:05;;;;;;;8.35;4.70;;;2.50;99.90;;;;;;5006300;28;20049;-34
2023/12/04 10:35:33;;;;;;;6.78;4.63;;;2.50;99.90;;;;;;5007721;28;20424;-40
2023/12/04 10:37:59;;;;;;;7.40;4.70;;;2.50;99.90;;;;;;5005821;28;20046;-34
2023/12/04 10:40:26;;;;;;;7.57;5.15;;;2.50;99.90;;;;;;5005783;28;20050;-35
2023/12/04 10:43:22;;;;;;;8.30;5.22;;;2.50;99.90;;;;;;5010759;28;20053;-34
2023/12/04 10:45:49;;;;;;;8.65;6.38;;;2.50;99.90;;;;;;5007939;28;20049;-35
2023/12/04 10:48:16;;;;;;;9.10;5.80;;;2.50;99.90;;;;;;5007458;28;20081;-36
2023/12/04 10:50:49;;;;;;;8.60;5.30;;;2.50;99.90;;;;;;5011418;28;20144;-35
2023/12/04 10:53:15;;;;;;;;;;;2.60;99.90;;;;;;5006697;28;20057;-35
2023/12/04 10:55:42;;;;;;;15.80;14.55;;;2.50;99.90;;;;;;5007289;28;19948;-37
2023/12/04 10:58:14;;;;;;;8.65;6.60;;;2.50;99.90;;;;;;5004048;28;20050;-35
2023/12/04 11:00:45;;;;;;;7.90;6.53;;;2.60;99.90;;;;;;5005387;28;20085;-35
2023/12/04 11:03:25;;;;;;;7.50;6.20;;;2.60;99.90;;;;;;4994617;28;20351;-35
2023/12/04 11:06:02;;;;;;;8.93;6.65;;;2.60;99.90;;;;;;5001446;28;20081;-34
2023/12/04 11:08:32;;;;;;;9.10;7.70;;;2.70;99.90;;;;;;5004014;28;20555;-35
2023/12/04 11:11:11;;;;;;;9.07;8.15;;;2.70;99.90;;;;;;5003806;28;20060;-36
2023/12/04 11:13:42;;;;;;;11.70;10.05;;;2.70;99.90;;;;;;4999995;28;20136;-34
2023/12/04 11:16:17;;;;;;;10.95;10.00;;;2.70;99.90;;;;;;5000614;28;20058;-35
2023/12/04 11:18:46;;;;;;;11.18;10.20;;;2.80;99.90;;;;;;5001859;28;20058;-34
2023/12/04 11:21:12;;;;;;;12.13;11.13;;;2.80;99.90;;;;;;5005070;28;20045;-35
2023/12/04 11:23:38;;;;;;;14.38;13.18;;;2.90;99.90;;;;;;5004463;28;20526;-35
2023/12/04 11:26:05;;;;;;;15.82;14.63;;;2.90;99.90;;;;;;5003202;28;20046;-40
2023/12/04 11:28:33;;;;;;;13.95;12.88;;;3.00;99.90;;;;;;5003167;28;20184;-35
2023/12/04 11:31:00;;;;;;;13.88;12.80;;;3.00;99.90;;;;;;5002662;28;20049;-35
2023/12/04 11:33:26;;;;;;;15.52;14.38;;;3.00;99.90;;;;;;5006640;28;20333;-35
2023/12/04 11:35:52;;;;;;;29.23;26.58;;;3.00;99.90;;;;;;5006931;28;20068;-35
2023/12/04 11:38:18;;;;;;;19.95;18.42;;;3.00;99.90;;;;;;5003912;28;20415;-34
2023/12/04 11:40:46;;;;;;;23.25;21.48;;;3.00;99.90;;;;;;5006619;28;20058;-34
2023/12/04 11:43:25;;;;;;;24.30;22.63;;;3.10;99.90;;;;;;5006440;28;20492;-35
2023/12/04 11:45:50;;;;;;;24.02;22.33;;;3.10;99.90;;;;;;5003855;28;20059;-35
2023/12/04 11:48:16;;;;;;;26.20;24.50;;;3.10;99.90;;;;;;5007115;28;20050;-35
2023/12/04 11:50:45;;;;;;;25.15;23.55;;;3.10;99.90;;;;;;5001881;28;20411;-35
2023/12/04 11:53:14;;;;;;;24.15;22.45;;;3.20;99.90;;;;;;5008257;28;20049;-35
2023/12/04 11:55:44;;;;;;;22.83;21.20;;;3.20;99.90;;;;;;5008780;28;20511;-35
2023/12/04 11:58:11;;;;;;;21.42;19.80;;;3.20;99.90;;;;;;5004207;28;20415;-35
2023/12/04 12:00:37;;;;;;;22.83;21.33;;;3.20;99.90;;;;;;5004612;28;20483;-35
2023/12/04 12:03:08;;;;;;;21.50;20.00;;;3.20;99.90;;;;;;5001143;28;20158;-34
2023/12/04 12:05:35;;;;;;;25.33;23.58;;;3.20;99.90;;;;;;5004830;28;20412;-35
2023/12/04 12:08:03;;;;;;;26.42;24.40;;;3.20;99.90;;;;;;5005294;28;20068;-36
2023/12/04 12:10:29;;;;;;;21.63;20.20;;;3.20;99.90;;;;;;5004491;28;20054;-33
2023/12/04 12:12:56;;;;;;;24.23;22.48;;;3.20;99.90;;;;;;5005154;28;20062;-35
2023/12/04 12:15:22;;;;;;;30.55;28.40;;;3.10;99.90;;;;;;5003481;28;21760;-33
2023/12/04 12:17:50;;;;;;;22.25;20.70;;;3.10;99.90;;;;;;5004530;28;20123;-35
2023/12/04 12:20:16;;;;;;;21.88;20.25;;;3.10;99.90;;;;;;5001523;28;20491;-36
2023/12/04 12:22:43;;;;;;;27.67;25.70;;;3.10;99.90;;;;;;5002171;28;20064;-33
2023/12/04 12:25:10;;;;;;;19.42;17.95;;;3.10;99.90;;;;;;5005784;28;20115;-35
2023/12/04 12:27:37;;;;;;;23.33;21.73;;;3.10;99.90;;;;;;5001831;28;20050;-35
2023/12/04 12:30:04;;;;;;;104.85;82.80;;;3.10;99.90;;;;;;5006211;28;20423;-34
2023/12/04 12:32:36;;;;;;;28.25;25.85;;;3.10;99.90;;;;;;5006455;28;20042;-38
2023/12/04 12:35:03;;;;;;;21.48;19.83;;;3.10;99.90;;;;;;5003543;28;20565;-33
2023/12/04 12:37:29;;;;;;;21.17;19.58;;;3.00;99.90;;;;;;5008237;28;20076;-34